sensor_id;sensor_type;location;lat;lon;timestamp;P1;durP1;ratioP1;P2;durP2;ratioP2
25946;SDS011;13745;51.470;9.894;2022-12-05T00:01:57;26.38;;;12.98;;
25946;SDS011;13745;51.470;9.894;2022-12-05T00:04:43;24.20;;;13.30;;
25946;SDS011;13745;51.470;9.894;2022-12-05T00:07:29;24.58;;;13.80;;
25946;SDS011;13745;51.470;9.894;2022-12-05T00:10:14;22.40;;;13.25;;
25946;SDS011;13745;51.470;9.894;2022-12-05T00:13:00;21.42;;;12.82;;
25946;SDS011;13745;51.470;9.894;2022-12-05T00:15:46;25.77;;;13.57;;
25946;SDS011;13745;51.470;9.894;2022-12-05T00:18:33;20.63;;;12.63;;
25946;SDS011;13745;51.470;9.894;2022-12-05T00:21:20;24.23;;;13.60;;
25946;SDS011;13745;51.470;9.894;2022-12-05T00:24:09;24.63;;;12.95;;
25946;SDS011;13745;51.470;9.894;2022-12-05T00:26:57;21.52;;;12.88;;
25946;SDS011;13745;51.470;9.894;2022-12-05T00:29:42;25.50;;;12.85;;
25946;SDS011;13745;51.470;9.894;2022-12-05T00:32:28;24.83;;;13.60;;
25946;SDS011;13745;51.470;9.894;2022-12-05T00:35:15;24.10;;;12.60;;
25946;SDS011;13745;51.470;9.894;2022-12-05T00:38:01;26.15;;;13.02;;
25946;SDS011;13745;51.470;9.894;2022-12-05T00:40:47;23.80;;;12.93;;
25946;SDS011;13745;51.470;9.894;2022-12-05T00:43:32;24.35;;;12.45;;
25946;SDS011;13745;51.470;9.894;2022-12-05T00:46:19;22.52;;;11.80;;
25946;SDS011;13745;51.470;9.894;2022-12-05T00:49:07;26.48;;;12.68;;
25946;SDS011;13745;51.470;9.894;2022-12-05T00:51:54;20.75;;;12.45;;
25946;SDS011;13745;51.470;9.894;2022-12-05T00:54:40;23.60;;;13.07;;
25946;SDS011;13745;51.470;9.894;2022-12-05T00:57:25;26.52;;;13.68;;
25946;SDS011;13745;51.470;9.894;2022-12-05T01:00:12;25.83;;;13.15;;
25946;SDS011;13745;51.470;9.894;2022-12-05T01:02:58;23.83;;;13.73;;
25946;SDS011;13745;51.470;9.894;2022-12-05T01:05:44;26.65;;;14.20;;
25946;SDS011;13745;51.470;9.894;2022-12-05T01:08:31;23.38;;;12.48;;
25946;SDS011;13745;51.470;9.894;2022-12-05T01:11:18;27.17;;;13.60;;
25946;SDS011;13745;51.470;9.894;2022-12-05T01:14:04;29.58;;;14.07;;
25946;SDS011;13745;51.470;9.894;2022-12-05T01:16:52;24.10;;;12.98;;
25946;SDS011;13745;51.470;9.894;2022-12-05T01:19:39;25.95;;;13.45;;
25946;SDS011;13745;51.470;9.894;2022-12-05T01:22:25;25.55;;;13.43;;
25946;SDS011;13745;51.470;9.894;2022-12-05T01:25:12;25.63;;;13.73;;
25946;SDS011;13745;51.470;9.894;2022-12-05T01:27:58;26.00;;;15.23;;
25946;SDS011;13745;51.470;9.894;2022-12-05T01:30:44;25.50;;;13.40;;
25946;SDS011;13745;51.470;9.894;2022-12-05T01:33:32;23.27;;;13.48;;
25946;SDS011;13745;51.470;9.894;2022-12-05T01:36:18;22.10;;;13.23;;
25946;SDS011;13745;51.470;9.894;2022-12-05T01:39:05;25.55;;;14.48;;
25946;SDS011;13745;51.470;9.894;2022-12-05T01:41:52;28.50;;;14.27;;
25946;SDS011;13745;51.470;9.894;2022-12-05T01:47:44;26.42;;;13.70;;
25946;SDS011;13745;51.470;9.894;2022-12-05T01:50:30;25.67;;;13.32;;
25946;SDS011;13745;51.470;9.894;2022-12-05T01:53:17;28.63;;;14.23;;
25946;SDS011;13745;51.470;9.894;2022-12-05T01:56:04;25.02;;;13.43;;
25946;SDS011;13745;51.470;9.894;2022-12-05T01:58:51;24.92;;;13.75;;
25946;SDS011;13745;51.470;9.894;2022-12-05T02:01:38;25.35;;;13.30;;
25946;SDS011;13745;51.470;9.894;2022-12-05T02:04:25;30.23;;;14.60;;
25946;SDS011;13745;51.470;9.894;2022-12-05T02:07:11;24.80;;;14.23;;
25946;SDS011;13745;51.470;9.894;2022-12-05T02:09:57;23.80;;;13.20;;
25946;SDS011;13745;51.470;9.894;2022-12-05T02:12:42;26.30;;;14.13;;
25946;SDS011;13745;51.470;9.894;2022-12-05T02:15:34;28.50;;;14.27;;
25946;SDS011;13745;51.470;9.894;2022-12-05T02:18:28;32.28;;;14.23;;
25946;SDS011;13745;51.470;9.894;2022-12-05T02:21:37;30.23;;;13.90;;
25946;SDS011;13745;51.470;9.894;2022-12-05T02:24:46;25.42;;;13.73;;
25946;SDS011;13745;51.470;9.894;2022-12-05T02:27:46;27.13;;;14.00;;
25946;SDS011;13745;51.470;9.894;2022-12-05T02:30:53;24.83;;;14.25;;
25946;SDS011;13745;51.470;9.894;2022-12-05T02:33:43;24.27;;;13.52;;
25946;SDS011;13745;51.470;9.894;2022-12-05T02:36:34;26.90;;;13.75;;
25946;SDS011;13745;51.470;9.894;2022-12-05T02:39:25;25.10;;;13.43;;
25946;SDS011;13745;51.470;9.894;2022-12-05T02:42:19;27.35;;;13.57;;
25946;SDS011;13745;51.470;9.894;2022-12-05T02:45:09;25.95;;;13.23;;
25946;SDS011;13745;51.470;9.894;2022-12-05T02:47:59;24.10;;;13.40;;
25946;SDS011;13745;51.470;9.894;2022-12-05T02:50:46;23.48;;;12.65;;
25946;SDS011;13745;51.470;9.894;2022-12-05T02:53:35;23.23;;;12.38;;
25946;SDS011;13745;51.470;9.894;2022-12-05T02:56:22;27.70;;;14.18;;
25946;SDS011;13745;51.470;9.894;2022-12-05T02:59:09;25.27;;;13.60;;
25946;SDS011;13745;51.470;9.894;2022-12-05T03:01:55;23.98;;;12.45;;
25946;SDS011;13745;51.470;9.894;2022-12-05T03:04:42;26.05;;;13.80;;
25946;SDS011;13745;51.470;9.894;2022-12-05T03:07:27;24.67;;;12.88;;
25946;SDS011;13745;51.470;9.894;2022-12-05T03:10:16;23.80;;;12.75;;
25946;SDS011;13745;51.470;9.894;2022-12-05T03:13:11;25.95;;;13.00;;
25946;SDS011;13745;51.470;9.894;2022-12-05T03:16:02;23.10;;;12.73;;
25946;SDS011;13745;51.470;9.894;2022-12-05T03:18:53;23.17;;;13.05;;
25946;SDS011;13745;51.470;9.894;2022-12-05T03:21:44;25.42;;;13.27;;
25946;SDS011;13745;51.470;9.894;2022-12-05T03:24:36;21.05;;;12.90;;
25946;SDS011;13745;51.470;9.894;2022-12-05T03:27:26;25.27;;;13.55;;
25946;SDS011;13745;51.470;9.894;2022-12-05T03:30:18;24.40;;;11.93;;
25946;SDS011;13745;51.470;9.894;2022-12-05T03:33:07;28.02;;;13.95;;
25946;SDS011;13745;51.470;9.894;2022-12-05T03:35:58;20.65;;;11.75;;
25946;SDS011;13745;51.470;9.894;2022-12-05T03:38:49;22.58;;;11.88;;
25946;SDS011;13745;51.470;9.894;2022-12-05T03:41:39;19.73;;;11.55;;
25946;SDS011;13745;51.470;9.894;2022-12-05T03:44:29;23.77;;;11.40;;
25946;SDS011;13745;51.470;9.894;2022-12-05T03:47:20;22.58;;;12.60;;
25946;SDS011;13745;51.470;9.894;2022-12-05T03:50:12;20.73;;;11.25;;
25946;SDS011;13745;51.470;9.894;2022-12-05T03:53:04;14.93;;;8.80;;
25946;SDS011;13745;51.470;9.894;2022-12-05T03:55:56;20.90;;;11.75;;
25946;SDS011;13745;51.470;9.894;2022-12-05T03:58:48;23.80;;;11.45;;
25946;SDS011;13745;51.470;9.894;2022-12-05T04:01:38;22.67;;;12.18;;
25946;SDS011;13745;51.470;9.894;2022-12-05T04:04:28;18.88;;;10.77;;
25946;SDS011;13745;51.470;9.894;2022-12-05T04:07:18;20.20;;;11.88;;
25946;SDS011;13745;51.470;9.894;2022-12-05T04:10:05;16.70;;;11.00;;
25946;SDS011;13745;51.470;9.894;2022-12-05T04:12:58;22.20;;;11.48;;
25946;SDS011;13745;51.470;9.894;2022-12-05T04:16:01;19.35;;;11.13;;
25946;SDS011;13745;51.470;9.894;2022-12-05T04:19:11;17.13;;;10.88;;
25946;SDS011;13745;51.470;9.894;2022-12-05T04:22:02;18.08;;;11.32;;
25946;SDS011;13745;51.470;9.894;2022-12-05T04:24:47;18.38;;;11.55;;
25946;SDS011;13745;51.470;9.894;2022-12-05T04:27:53;17.10;;;10.75;;
25946;SDS011;13745;51.470;9.894;2022-12-05T04:30:52;15.48;;;10.10;;
25946;SDS011;13745;51.470;9.894;2022-12-05T04:33:45;15.77;;;10.13;;
25946;SDS011;13745;51.470;9.894;2022-12-05T04:36:37;15.23;;;9.77;;
25946;SDS011;13745;51.470;9.894;2022-12-05T04:39:28;14.35;;;9.70;;
25946;SDS011;13745;51.470;9.894;2022-12-05T04:42:18;18.73;;;10.40;;
25946;SDS011;13745;51.470;9.894;2022-12-05T04:45:09;15.13;;;10.60;;
25946;SDS011;13745;51.470;9.894;2022-12-05T04:47:57;15.10;;;10.48;;
25946;SDS011;13745;51.470;9.894;2022-12-05T04:50:45;18.98;;;11.50;;
25946;SDS011;13745;51.470;9.894;2022-12-05T04:53:33;15.95;;;10.63;;
25946;SDS011;13745;51.470;9.894;2022-12-05T04:56:21;14.57;;;9.75;;
25946;SDS011;13745;51.470;9.894;2022-12-05T04:59:10;17.33;;;10.25;;
25946;SDS011;13745;51.470;9.894;2022-12-05T05:01:58;14.60;;;9.82;;
25946;SDS011;13745;51.470;9.894;2022-12-05T05:04:51;15.38;;;8.77;;
25946;SDS011;13745;51.470;9.894;2022-12-05T05:07:43;13.88;;;9.75;;
25946;SDS011;13745;51.470;9.894;2022-12-05T05:10:32;13.50;;;9.65;;
25946;SDS011;13745;51.470;9.894;2022-12-05T05:13:21;16.60;;;10.68;;
25946;SDS011;13745;51.470;9.894;2022-12-05T05:16:11;12.10;;;9.50;;
25946;SDS011;13745;51.470;9.894;2022-12-05T05:18:59;10.70;;;8.93;;
25946;SDS011;13745;51.470;9.894;2022-12-05T05:21:45;14.52;;;9.05;;
25946;SDS011;13745;51.470;9.894;2022-12-05T05:24:31;14.32;;;9.13;;
25946;SDS011;13745;51.470;9.894;2022-12-05T05:27:17;12.27;;;8.23;;
25946;SDS011;13745;51.470;9.894;2022-12-05T05:30:03;12.05;;;8.77;;
25946;SDS011;13745;51.470;9.894;2022-12-05T05:32:49;12.88;;;8.68;;
25946;SDS011;13745;51.470;9.894;2022-12-05T05:35:37;11.93;;;8.07;;
25946;SDS011;13745;51.470;9.894;2022-12-05T05:38:22;13.02;;;8.60;;
25946;SDS011;13745;51.470;9.894;2022-12-05T05:41:11;16.17;;;9.48;;
25946;SDS011;13745;51.470;9.894;2022-12-05T05:43:58;13.18;;;8.68;;
25946;SDS011;13745;51.470;9.894;2022-12-05T05:46:45;12.95;;;9.45;;
25946;SDS011;13745;51.470;9.894;2022-12-05T05:49:30;11.35;;;8.48;;
25946;SDS011;13745;51.470;9.894;2022-12-05T05:52:17;13.88;;;8.65;;
25946;SDS011;13745;51.470;9.894;2022-12-05T05:55:04;12.57;;;9.50;;
25946;SDS011;13745;51.470;9.894;2022-12-05T05:57:51;13.38;;;8.95;;
25946;SDS011;13745;51.470;9.894;2022-12-05T06:00:37;13.20;;;8.50;;
25946;SDS011;13745;51.470;9.894;2022-12-05T06:03:23;14.63;;;8.57;;
25946;SDS011;13745;51.470;9.894;2022-12-05T06:06:10;11.63;;;8.43;;
25946;SDS011;13745;51.470;9.894;2022-12-05T06:08:59;10.25;;;8.10;;
25946;SDS011;13745;51.470;9.894;2022-12-05T06:11:44;12.45;;;8.93;;
25946;SDS011;13745;51.470;9.894;2022-12-05T06:14:30;13.90;;;9.50;;
25946;SDS011;13745;51.470;9.894;2022-12-05T06:17:16;11.38;;;8.07;;
25946;SDS011;13745;51.470;9.894;2022-12-05T06:20:01;11.23;;;8.50;;
25946;SDS011;13745;51.470;9.894;2022-12-05T06:22:47;11.88;;;8.73;;
25946;SDS011;13745;51.470;9.894;2022-12-05T06:25:34;14.73;;;7.57;;
25946;SDS011;13745;51.470;9.894;2022-12-05T06:28:20;13.35;;;8.27;;
25946;SDS011;13745;51.470;9.894;2022-12-05T06:31:07;11.10;;;8.02;;
25946;SDS011;13745;51.470;9.894;2022-12-05T06:33:54;12.30;;;8.00;;
25946;SDS011;13745;51.470;9.894;2022-12-05T06:36:39;11.10;;;8.18;;
25946;SDS011;13745;51.470;9.894;2022-12-05T06:39:25;9.30;;;7.32;;
25946;SDS011;13745;51.470;9.894;2022-12-05T06:42:13;10.63;;;7.88;;
25946;SDS011;13745;51.470;9.894;2022-12-05T06:44:58;13.10;;;8.50;;
25946;SDS011;13745;51.470;9.894;2022-12-05T06:47:44;10.75;;;7.88;;
25946;SDS011;13745;51.470;9.894;2022-12-05T06:50:30;11.20;;;8.15;;
25946;SDS011;13745;51.470;9.894;2022-12-05T06:53:16;8.98;;;6.95;;
25946;SDS011;13745;51.470;9.894;2022-12-05T06:56:02;10.35;;;8.27;;
25946;SDS011;13745;51.470;9.894;2022-12-05T06:58:52;10.25;;;7.45;;
25946;SDS011;13745;51.470;9.894;2022-12-05T07:01:38;10.20;;;7.50;;
25946;SDS011;13745;51.470;9.894;2022-12-05T07:04:25;9.43;;;7.93;;
25946;SDS011;13745;51.470;9.894;2022-12-05T07:07:11;10.85;;;7.95;;
25946;SDS011;13745;51.470;9.894;2022-12-05T07:09:57;13.23;;;7.88;;
25946;SDS011;13745;51.470;9.894;2022-12-05T07:12:43;8.85;;;7.22;;
25946;SDS011;13745;51.470;9.894;2022-12-05T07:15:30;8.48;;;7.00;;
25946;SDS011;13745;51.470;9.894;2022-12-05T07:18:15;13.25;;;8.07;;
25946;SDS011;13745;51.470;9.894;2022-12-05T07:21:03;12.57;;;8.15;;
25946;SDS011;13745;51.470;9.894;2022-12-05T07:23:50;14.23;;;8.95;;
25946;SDS011;13745;51.470;9.894;2022-12-05T07:26:35;13.13;;;8.90;;
25946;SDS011;13745;51.470;9.894;2022-12-05T07:29:22;9.80;;;7.88;;
25946;SDS011;13745;51.470;9.894;2022-12-05T07:32:09;12.85;;;8.60;;
25946;SDS011;13745;51.470;9.894;2022-12-05T07:34:54;12.90;;;8.35;;
25946;SDS011;13745;51.470;9.894;2022-12-05T07:37:40;16.80;;;8.27;;
25946;SDS011;13745;51.470;9.894;2022-12-05T07:40:26;9.50;;;7.40;;
25946;SDS011;13745;51.470;9.894;2022-12-05T07:43:12;9.82;;;7.75;;
25946;SDS011;13745;51.470;9.894;2022-12-05T07:46:00;9.95;;;7.60;;
25946;SDS011;13745;51.470;9.894;2022-12-05T07:48:48;9.95;;;7.75;;
25946;SDS011;13745;51.470;9.894;2022-12-05T07:51:34;13.82;;;9.38;;
25946;SDS011;13745;51.470;9.894;2022-12-05T07:54:22;10.07;;;7.65;;
25946;SDS011;13745;51.470;9.894;2022-12-05T07:57:07;11.07;;;8.20;;
25946;SDS011;13745;51.470;9.894;2022-12-05T07:59:54;12.15;;;7.15;;
25946;SDS011;13745;51.470;9.894;2022-12-05T08:02:39;7.97;;;6.78;;
25946;SDS011;13745;51.470;9.894;2022-12-05T08:05:26;7.88;;;6.47;;
25946;SDS011;13745;51.470;9.894;2022-12-05T08:08:12;7.95;;;6.70;;
25946;SDS011;13745;51.470;9.894;2022-12-05T08:11:01;8.65;;;6.32;;
25946;SDS011;13745;51.470;9.894;2022-12-05T08:13:48;7.43;;;6.10;;
25946;SDS011;13745;51.470;9.894;2022-12-05T08:16:35;7.85;;;7.05;;
25946;SDS011;13745;51.470;9.894;2022-12-05T08:19:20;7.68;;;6.57;;
25946;SDS011;13745;51.470;9.894;2022-12-05T08:22:07;7.63;;;6.63;;
25946;SDS011;13745;51.470;9.894;2022-12-05T08:24:53;10.02;;;7.07;;
25946;SDS011;13745;51.470;9.894;2022-12-05T08:27:39;10.15;;;7.60;;
25946;SDS011;13745;51.470;9.894;2022-12-05T08:30:24;8.07;;;7.22;;
25946;SDS011;13745;51.470;9.894;2022-12-05T08:33:10;10.23;;;7.88;;
25946;SDS011;13745;51.470;9.894;2022-12-05T08:35:58;9.98;;;7.38;;
25946;SDS011;13745;51.470;9.894;2022-12-05T08:38:46;10.70;;;7.53;;
25946;SDS011;13745;51.470;9.894;2022-12-05T08:41:32;8.90;;;6.82;;
25946;SDS011;13745;51.470;9.894;2022-12-05T08:44:17;8.15;;;6.30;;
25946;SDS011;13745;51.470;9.894;2022-12-05T08:47:03;6.47;;;5.78;;
25946;SDS011;13745;51.470;9.894;2022-12-05T08:49:49;6.25;;;5.47;;
25946;SDS011;13745;51.470;9.894;2022-12-05T08:52:35;5.93;;;4.78;;
25946;SDS011;13745;51.470;9.894;2022-12-05T08:55:22;6.20;;;4.93;;
25946;SDS011;13745;51.470;9.894;2022-12-05T08:58:08;5.30;;;4.70;;
25946;SDS011;13745;51.470;9.894;2022-12-05T09:00:54;5.85;;;5.25;;
25946;SDS011;13745;51.470;9.894;2022-12-05T09:03:40;9.63;;;4.95;;
25946;SDS011;13745;51.470;9.894;2022-12-05T09:06:27;6.15;;;4.97;;
25946;SDS011;13745;51.470;9.894;2022-12-05T09:09:13;6.30;;;5.60;;
25946;SDS011;13745;51.470;9.894;2022-12-05T09:12:02;5.53;;;4.70;;
25946;SDS011;13745;51.470;9.894;2022-12-05T09:14:48;5.93;;;4.65;;
25946;SDS011;13745;51.470;9.894;2022-12-05T09:17:33;5.72;;;4.63;;
25946;SDS011;13745;51.470;9.894;2022-12-05T09:20:19;5.70;;;4.65;;
25946;SDS011;13745;51.470;9.894;2022-12-05T09:23:05;5.30;;;4.45;;
25946;SDS011;13745;51.470;9.894;2022-12-05T09:25:51;5.30;;;4.80;;
25946;SDS011;13745;51.470;9.894;2022-12-05T09:28:40;4.65;;;4.15;;
25946;SDS011;13745;51.470;9.894;2022-12-05T09:31:27;5.05;;;4.55;;
25946;SDS011;13745;51.470;9.894;2022-12-05T09:34:13;5.22;;;4.57;;
25946;SDS011;13745;51.470;9.894;2022-12-05T09:37:01;5.15;;;4.60;;
25946;SDS011;13745;51.470;9.894;2022-12-05T09:39:48;7.13;;;5.40;;
25946;SDS011;13745;51.470;9.894;2022-12-05T09:42:35;5.47;;;4.97;;
25946;SDS011;13745;51.470;9.894;2022-12-05T09:45:29;4.40;;;4.00;;
25946;SDS011;13745;51.470;9.894;2022-12-05T09:48:19;5.95;;;3.97;;
25946;SDS011;13745;51.470;9.894;2022-12-05T09:51:07;4.45;;;4.03;;
25946;SDS011;13745;51.470;9.894;2022-12-05T09:53:54;5.63;;;4.68;;
25946;SDS011;13745;51.470;9.894;2022-12-05T09:56:41;4.88;;;4.38;;
25946;SDS011;13745;51.470;9.894;2022-12-05T09:59:28;5.13;;;4.07;;
25946;SDS011;13745;51.470;9.894;2022-12-05T10:02:18;5.72;;;5.03;;
25946;SDS011;13745;51.470;9.894;2022-12-05T10:05:10;6.68;;;5.43;;
25946;SDS011;13745;51.470;9.894;2022-12-05T10:08:05;7.72;;;5.63;;
25946;SDS011;13745;51.470;9.894;2022-12-05T10:10:59;5.95;;;5.35;;
25946;SDS011;13745;51.470;9.894;2022-12-05T10:13:50;8.60;;;6.22;;
25946;SDS011;13745;51.470;9.894;2022-12-05T10:16:44;6.40;;;5.35;;
25946;SDS011;13745;51.470;9.894;2022-12-05T10:19:34;7.15;;;6.47;;
25946;SDS011;13745;51.470;9.894;2022-12-05T10:22:27;7.50;;;5.70;;
25946;SDS011;13745;51.470;9.894;2022-12-05T10:25:17;6.78;;;5.45;;
25946;SDS011;13745;51.470;9.894;2022-12-05T10:28:05;5.68;;;5.10;;
25946;SDS011;13745;51.470;9.894;2022-12-05T10:30:57;6.35;;;5.15;;
25946;SDS011;13745;51.470;9.894;2022-12-05T10:33:48;8.13;;;6.15;;
25946;SDS011;13745;51.470;9.894;2022-12-05T10:36:39;8.60;;;6.03;;
25946;SDS011;13745;51.470;9.894;2022-12-05T10:39:27;7.05;;;6.20;;
25946;SDS011;13745;51.470;9.894;2022-12-05T10:42:14;7.60;;;6.80;;
25946;SDS011;13745;51.470;9.894;2022-12-05T10:45:04;10.25;;;7.03;;
25946;SDS011;13745;51.470;9.894;2022-12-05T10:47:52;9.10;;;6.68;;
25946;SDS011;13745;51.470;9.894;2022-12-05T10:50:41;11.73;;;9.05;;
25946;SDS011;13745;51.470;9.894;2022-12-05T10:53:30;8.80;;;6.80;;
25946;SDS011;13745;51.470;9.894;2022-12-05T10:56:38;9.27;;;6.68;;
25946;SDS011;13745;51.470;9.894;2022-12-05T10:59:42;7.13;;;6.25;;
25946;SDS011;13745;51.470;9.894;2022-12-05T11:02:30;7.20;;;5.17;;
25946;SDS011;13745;51.470;9.894;2022-12-05T11:05:27;6.75;;;5.97;;
25946;SDS011;13745;51.470;9.894;2022-12-05T11:08:20;8.07;;;7.07;;
25946;SDS011;13745;51.470;9.894;2022-12-05T11:11:17;6.22;;;5.32;;
25946;SDS011;13745;51.470;9.894;2022-12-05T11:14:04;6.15;;;5.10;;
25946;SDS011;13745;51.470;9.894;2022-12-05T11:16:52;7.25;;;5.45;;
25946;SDS011;13745;51.470;9.894;2022-12-05T11:19:40;6.43;;;5.38;;
25946;SDS011;13745;51.470;9.894;2022-12-05T11:22:29;6.97;;;5.68;;
25946;SDS011;13745;51.470;9.894;2022-12-05T11:25:22;6.40;;;5.28;;
25946;SDS011;13745;51.470;9.894;2022-12-05T11:28:23;7.68;;;6.35;;
25946;SDS011;13745;51.470;9.894;2022-12-05T11:34:20;8.30;;;6.15;;
25946;SDS011;13745;51.470;9.894;2022-12-05T11:37:11;12.38;;;5.80;;
25946;SDS011;13745;51.470;9.894;2022-12-05T11:39:59;13.82;;;6.70;;
25946;SDS011;13745;51.470;9.894;2022-12-05T11:42:51;13.55;;;6.07;;
25946;SDS011;13745;51.470;9.894;2022-12-05T11:45:58;6.65;;;5.25;;
25946;SDS011;13745;51.470;9.894;2022-12-05T11:48:58;10.27;;;6.72;;
25946;SDS011;13745;51.470;9.894;2022-12-05T11:51:57;10.65;;;6.85;;
25946;SDS011;13745;51.470;9.894;2022-12-05T11:54:53;11.55;;;9.70;;
25946;SDS011;13745;51.470;9.894;2022-12-05T11:57:50;10.32;;;8.15;;
25946;SDS011;13745;51.470;9.894;2022-12-05T12:00:49;9.25;;;6.10;;
25946;SDS011;13745;51.470;9.894;2022-12-05T12:03:51;6.97;;;5.60;;
25946;SDS011;13745;51.470;9.894;2022-12-05T12:06:52;7.18;;;5.68;;
25946;SDS011;13745;51.470;9.894;2022-12-05T12:09:50;9.30;;;6.10;;
25946;SDS011;13745;51.470;9.894;2022-12-05T12:12:42;12.30;;;6.32;;
25946;SDS011;13745;51.470;9.894;2022-12-05T12:15:39;10.05;;;6.60;;
25946;SDS011;13745;51.470;9.894;2022-12-05T12:18:45;8.25;;;6.25;;
25946;SDS011;13745;51.470;9.894;2022-12-05T12:21:55;11.07;;;6.75;;
25946;SDS011;13745;51.470;9.894;2022-12-05T12:24:52;12.88;;;7.15;;
25946;SDS011;13745;51.470;9.894;2022-12-05T12:27:51;10.00;;;6.43;;
25946;SDS011;13745;51.470;9.894;2022-12-05T12:30:54;11.32;;;7.05;;
25946;SDS011;13745;51.470;9.894;2022-12-05T12:33:48;11.52;;;7.18;;
25946;SDS011;13745;51.470;9.894;2022-12-05T12:36:42;11.65;;;8.00;;
25946;SDS011;13745;51.470;9.894;2022-12-05T12:39:36;10.82;;;7.75;;
25946;SDS011;13745;51.470;9.894;2022-12-05T12:42:29;11.77;;;7.55;;
25946;SDS011;13745;51.470;9.894;2022-12-05T12:45:27;14.18;;;7.68;;
25946;SDS011;13745;51.470;9.894;2022-12-05T12:48:28;17.02;;;7.90;;
25946;SDS011;13745;51.470;9.894;2022-12-05T12:51:25;11.52;;;8.13;;
25946;SDS011;13745;51.470;9.894;2022-12-05T12:54:18;10.40;;;7.53;;
25946;SDS011;13745;51.470;9.894;2022-12-05T12:57:20;15.95;;;8.35;;
25946;SDS011;13745;51.470;9.894;2022-12-05T13:00:11;19.15;;;10.10;;
25946;SDS011;13745;51.470;9.894;2022-12-05T13:03:09;19.42;;;9.82;;
25946;SDS011;13745;51.470;9.894;2022-12-05T13:06:01;14.00;;;8.73;;
25946;SDS011;13745;51.470;9.894;2022-12-05T13:08:56;18.20;;;9.43;;
25946;SDS011;13745;51.470;9.894;2022-12-05T13:11:46;16.73;;;9.55;;
25946;SDS011;13745;51.470;9.894;2022-12-05T13:14:36;16.58;;;9.57;;
25946;SDS011;13745;51.470;9.894;2022-12-05T13:17:24;17.42;;;9.35;;
25946;SDS011;13745;51.470;9.894;2022-12-05T13:20:12;19.60;;;10.38;;
25946;SDS011;13745;51.470;9.894;2022-12-05T13:23:00;17.55;;;10.00;;
25946;SDS011;13745;51.470;9.894;2022-12-05T13:25:49;13.32;;;8.60;;
25946;SDS011;13745;51.470;9.894;2022-12-05T13:28:37;17.38;;;10.35;;
25946;SDS011;13745;51.470;9.894;2022-12-05T13:31:36;16.10;;;9.40;;
25946;SDS011;13745;51.470;9.894;2022-12-05T13:37:29;14.77;;;9.65;;
25946;SDS011;13745;51.470;9.894;2022-12-05T13:40:33;19.23;;;9.25;;
25946;SDS011;13745;51.470;9.894;2022-12-05T13:43:40;15.95;;;9.32;;
25946;SDS011;13745;51.470;9.894;2022-12-05T13:46:28;15.57;;;9.23;;
25946;SDS011;13745;51.470;9.894;2022-12-05T13:49:22;17.25;;;9.88;;
25946;SDS011;13745;51.470;9.894;2022-12-05T13:52:21;21.40;;;10.38;;
25946;SDS011;13745;51.470;9.894;2022-12-05T13:55:25;16.33;;;10.43;;
25946;SDS011;13745;51.470;9.894;2022-12-05T14:01:42;16.80;;;9.05;;
25946;SDS011;13745;51.470;9.894;2022-12-05T14:07:35;13.70;;;8.70;;
25946;SDS011;13745;51.470;9.894;2022-12-05T14:13:45;15.75;;;9.45;;
25946;SDS011;13745;51.470;9.894;2022-12-05T14:19:33;14.07;;;9.13;;
25946;SDS011;13745;51.470;9.894;2022-12-05T14:22:49;15.73;;;9.43;;
25946;SDS011;13745;51.470;9.894;2022-12-05T14:29:02;15.57;;;10.02;;
25946;SDS011;13745;51.470;9.894;2022-12-05T14:32:03;14.80;;;9.60;;
25946;SDS011;13745;51.470;9.894;2022-12-05T14:35:00;21.13;;;11.00;;
25946;SDS011;13745;51.470;9.894;2022-12-05T14:37:57;19.98;;;10.85;;
25946;SDS011;13745;51.470;9.894;2022-12-05T14:40:46;15.20;;;9.85;;
25946;SDS011;13745;51.470;9.894;2022-12-05T14:43:33;18.40;;;9.50;;
25946;SDS011;13745;51.470;9.894;2022-12-05T14:46:20;18.25;;;11.40;;
25946;SDS011;13745;51.470;9.894;2022-12-05T14:49:32;19.27;;;11.50;;
25946;SDS011;13745;51.470;9.894;2022-12-05T14:52:19;18.20;;;10.75;;
25946;SDS011;13745;51.470;9.894;2022-12-05T14:55:11;16.95;;;9.90;;
25946;SDS011;13745;51.470;9.894;2022-12-05T14:58:00;20.42;;;11.90;;
25946;SDS011;13745;51.470;9.894;2022-12-05T15:00:53;17.23;;;11.02;;
25946;SDS011;13745;51.470;9.894;2022-12-05T15:03:42;21.88;;;11.68;;
25946;SDS011;13745;51.470;9.894;2022-12-05T15:06:51;21.17;;;12.45;;
25946;SDS011;13745;51.470;9.894;2022-12-05T15:09:40;19.73;;;10.77;;
25946;SDS011;13745;51.470;9.894;2022-12-05T15:12:36;22.27;;;12.15;;
25946;SDS011;13745;51.470;9.894;2022-12-05T15:15:29;24.30;;;13.73;;
25946;SDS011;13745;51.470;9.894;2022-12-05T15:18:21;21.58;;;13.63;;
25946;SDS011;13745;51.470;9.894;2022-12-05T15:21:13;22.95;;;14.30;;
25946;SDS011;13745;51.470;9.894;2022-12-05T15:24:10;18.58;;;11.80;;
25946;SDS011;13745;51.470;9.894;2022-12-05T15:26:57;18.83;;;11.60;;
25946;SDS011;13745;51.470;9.894;2022-12-05T15:29:51;24.73;;;12.52;;
25946;SDS011;13745;51.470;9.894;2022-12-05T15:32:38;21.70;;;12.35;;
25946;SDS011;13745;51.470;9.894;2022-12-05T15:35:25;19.20;;;11.27;;
25946;SDS011;13745;51.470;9.894;2022-12-05T15:38:17;22.85;;;12.38;;
25946;SDS011;13745;51.470;9.894;2022-12-05T15:41:14;19.67;;;11.98;;
25946;SDS011;13745;51.470;9.894;2022-12-05T15:44:00;20.15;;;11.52;;
25946;SDS011;13745;51.470;9.894;2022-12-05T15:46:54;22.50;;;12.30;;
25946;SDS011;13745;51.470;9.894;2022-12-05T15:49:40;18.60;;;11.65;;
25946;SDS011;13745;51.470;9.894;2022-12-05T15:52:27;22.27;;;12.70;;
25946;SDS011;13745;51.470;9.894;2022-12-05T15:55:19;19.92;;;11.63;;
25946;SDS011;13745;51.470;9.894;2022-12-05T15:58:11;17.95;;;12.10;;
25946;SDS011;13745;51.470;9.894;2022-12-05T16:01:05;20.20;;;12.13;;
25946;SDS011;13745;51.470;9.894;2022-12-05T16:03:58;21.70;;;11.98;;
25946;SDS011;13745;51.470;9.894;2022-12-05T16:06:47;19.83;;;11.57;;
25946;SDS011;13745;51.470;9.894;2022-12-05T16:09:37;21.20;;;12.55;;
25946;SDS011;13745;51.470;9.894;2022-12-05T16:12:26;20.35;;;11.93;;
25946;SDS011;13745;51.470;9.894;2022-12-05T16:15:19;22.50;;;13.13;;
25946;SDS011;13745;51.470;9.894;2022-12-05T16:18:20;20.45;;;12.40;;
25946;SDS011;13745;51.470;9.894;2022-12-05T16:24:17;21.00;;;11.80;;
25946;SDS011;13745;51.470;9.894;2022-12-05T16:27:12;23.23;;;12.60;;
25946;SDS011;13745;51.470;9.894;2022-12-05T16:30:07;20.13;;;12.75;;
25946;SDS011;13745;51.470;9.894;2022-12-05T16:33:02;25.67;;;12.50;;
25946;SDS011;13745;51.470;9.894;2022-12-05T16:35:50;21.05;;;11.63;;
25946;SDS011;13745;51.470;9.894;2022-12-05T16:38:37;21.05;;;12.93;;
25946;SDS011;13745;51.470;9.894;2022-12-05T16:41:31;23.60;;;12.75;;
25946;SDS011;13745;51.470;9.894;2022-12-05T16:47:54;18.23;;;11.70;;
25946;SDS011;13745;51.470;9.894;2022-12-05T16:50:41;20.60;;;12.40;;
25946;SDS011;13745;51.470;9.894;2022-12-05T16:53:28;20.33;;;12.00;;
25946;SDS011;13745;51.470;9.894;2022-12-05T16:56:18;20.65;;;11.77;;
25946;SDS011;13745;51.470;9.894;2022-12-05T16:59:10;22.73;;;12.10;;
25946;SDS011;13745;51.470;9.894;2022-12-05T17:02:04;19.13;;;12.00;;
25946;SDS011;13745;51.470;9.894;2022-12-05T17:04:55;20.38;;;11.95;;
25946;SDS011;13745;51.470;9.894;2022-12-05T17:07:41;20.38;;;11.52;;
25946;SDS011;13745;51.470;9.894;2022-12-05T17:10:27;19.42;;;11.82;;
25946;SDS011;13745;51.470;9.894;2022-12-05T17:13:14;20.75;;;12.48;;
25946;SDS011;13745;51.470;9.894;2022-12-05T17:16:02;20.92;;;11.75;;
25946;SDS011;13745;51.470;9.894;2022-12-05T17:18:47;22.58;;;13.63;;